createdAt,value
2022-11-20T00:01:45.342Z,99035.66
2022-11-20T00:04:32.920Z,99039.16
2022-11-20T00:07:20.943Z,99032.91
2022-11-20T00:10:09.883Z,99031.41
2022-11-20T00:13:00.529Z,99038.63
2022-11-20T00:15:48.021Z,99037.81
2022-11-20T00:18:37.143Z,99035.59
2022-11-20T00:21:27.007Z,99038.53
2022-11-20T00:24:14.855Z,99038.09
2022-11-20T00:27:02.490Z,99037.22
2022-11-20T00:29:51.522Z,99035.31
2022-11-20T00:32:39.935Z,99032.09
2022-11-20T00:35:27.504Z,99025.66
2022-11-20T00:38:15.122Z,99022.28
2022-11-20T00:41:04.688Z,99031.88
2022-11-20T00:43:54.512Z,99015.53
2022-11-20T00:46:44.114Z,99015.53
2022-11-20T00:49:31.747Z,99011.38
2022-11-20T00:52:19.714Z,99013.38
2022-11-20T00:55:08.773Z,99021.16
2022-11-20T00:57:56.450Z,99030.38
2022-11-20T01:00:44.480Z,99031.69
2022-11-20T01:03:35.530Z,99036.53
2022-11-20T01:06:25.901Z,99037.50
2022-11-20T01:09:16.094Z,99037.88
2022-11-20T01:12:03.565Z,99039.44
2022-11-20T01:14:51.427Z,99035.84
2022-11-20T01:17:39.083Z,99044.97
2022-11-20T01:20:28.405Z,99041.38
2022-11-20T01:23:16.207Z,99045.31
2022-11-20T01:26:05.822Z,99041.75
2022-11-20T01:28:54.009Z,99035.53
2022-11-20T01:31:41.716Z,99044.88
2022-11-20T01:34:29.272Z,99034.09
2022-11-20T01:37:18.243Z,99045.59
2022-11-20T01:40:07.782Z,99042.44
2022-11-20T01:43:23.135Z,99047.16
2022-11-20T01:46:18.904Z,99025.44
2022-11-20T01:49:13.647Z,99037.38
2022-11-20T01:52:06.942Z,99021.84
2022-11-20T01:55:01.482Z,99014.88
2022-11-20T01:57:51.054Z,99014.06
2022-11-20T02:00:38.891Z,99009.13
2022-11-20T02:03:27.077Z,99020.28
2022-11-20T02:06:21.869Z,99003.94
2022-11-20T02:09:09.600Z,99001.78
2022-11-20T02:12:00.089Z,99002.44
2022-11-20T02:14:47.026Z,99007.28
2022-11-20T02:17:34.860Z,99012.09
2022-11-20T02:20:22.616Z,99015.81
2022-11-20T02:23:16.333Z,99017.47
2022-11-20T02:26:10.613Z,99015.19
2022-11-20T02:28:59.305Z,99014.25
2022-11-20T02:31:47.822Z,99011.09
2022-11-20T02:34:35.567Z,99008.75
2022-11-20T02:37:24.040Z,98993.06
2022-11-20T02:40:13.357Z,98994.09
2022-11-20T02:43:02.705Z,98993.28
2022-11-20T02:45:50.435Z,98982.34
2022-11-20T02:48:38.552Z,98990.13
2022-11-20T02:51:26.647Z,98984.41
2022-11-20T02:54:14.298Z,98981.59
2022-11-20T02:57:02.089Z,98978.34
2022-11-20T02:59:51.345Z,98975.88
2022-11-20T03:02:39.518Z,98986.38
2022-11-20T03:05:27.249Z,98981.75
2022-11-20T03:08:15.308Z,98978.94
2022-11-20T03:11:07.185Z,98982.13
2022-11-20T03:13:54.784Z,98978.50
2022-11-20T03:16:44.169Z,98976.50
2022-11-20T03:19:31.947Z,98969.50
2022-11-20T03:22:19.856Z,98978.09
2022-11-20T03:25:08.748Z,98969.28
2022-11-20T03:27:57.093Z,98971.88
2022-11-20T03:30:44.764Z,98974.47
2022-11-20T03:33:33.893Z,98976.84
2022-11-20T03:36:23.294Z,98972.56
2022-11-20T03:39:11.254Z,98977.47
2022-11-20T03:41:58.883Z,98977.34
2022-11-20T03:44:46.898Z,98982.91
2022-11-20T03:47:34.851Z,98980.41
2022-11-20T03:50:23.923Z,98983.59
2022-11-20T03:53:11.980Z,98978.94
2022-11-20T03:55:59.963Z,98982.56
2022-11-20T03:58:47.576Z,98976.81
2022-11-20T04:01:38.005Z,98981.97
2022-11-20T04:04:25.621Z,98978.41
2022-11-20T04:07:14.855Z,98977.25
2022-11-20T04:10:02.727Z,98977.72
2022-11-20T04:12:50.380Z,98970.94
2022-11-20T04:15:38.620Z,98974.97
2022-11-20T04:18:26.359Z,98973.41
2022-11-20T04:21:14.960Z,98979.94
2022-11-20T04:24:04.946Z,98976.13
2022-11-20T04:26:52.477Z,98979.06
2022-11-20T04:29:40.031Z,98972.66
2022-11-20T04:32:27.884Z,98973.00
2022-11-20T04:35:15.707Z,98962.97
2022-11-20T04:38:03.441Z,98965.56
2022-11-20T04:40:52.749Z,98962.75
2022-11-20T04:43:40.372Z,98967.94
2022-11-20T04:46:29.618Z,98966.38
2022-11-20T04:49:17.405Z,98961.94
2022-11-20T04:52:05.445Z,98967.94
2022-11-20T04:54:54.488Z,98966.16
2022-11-20T04:57:43.603Z,98967.13
2022-11-20T05:00:31.446Z,98966.91
2022-11-20T05:03:19.332Z,98962.53
2022-11-20T05:06:08.815Z,98967.50
2022-11-20T05:08:56.766Z,98951.16
2022-11-20T05:11:47.099Z,98955.56
2022-11-20T05:14:39.491Z,98958.38
2022-11-20T05:17:27.377Z,98947.22
2022-11-20T05:20:15.400Z,98941.22
2022-11-20T05:23:02.980Z,98946.88
2022-11-20T05:25:58.708Z,98942.16
2022-11-20T05:28:47.972Z,98950.47
2022-11-20T05:31:38.280Z,98948.91
2022-11-20T05:34:25.740Z,98948.31
2022-11-20T05:37:13.589Z,98944.97
2022-11-20T05:40:01.658Z,98945.94
2022-11-20T05:42:49.562Z,98938.97
2022-11-20T05:45:37.305Z,98943.13
2022-11-20T05:48:27.307Z,98939.56
2022-11-20T05:51:17.722Z,98940.91
2022-11-20T05:54:05.583Z,98914.78
2022-11-20T05:56:53.207Z,98939.13
2022-11-20T05:59:41.051Z,98926.16
2022-11-20T06:02:29.032Z,98938.31
2022-11-20T06:05:18.587Z,98940.91
2022-11-20T06:08:06.624Z,98941.72
2022-11-20T06:10:54.640Z,98930.09
2022-11-20T06:13:43.872Z,98929.66
2022-11-20T06:16:31.584Z,98922.66
2022-11-20T06:19:19.800Z,98917.25
2022-11-20T06:22:09.253Z,98921.19
2022-11-20T06:24:56.888Z,98922.78
2022-11-20T06:27:44.899Z,98925.94
2022-11-20T06:30:32.926Z,98922.34
2022-11-20T06:33:20.925Z,98921.56
2022-11-20T06:36:11.020Z,98923.13
2022-11-20T06:39:00.569Z,98918.75
2022-11-20T06:41:48.671Z,98919.88
2022-11-20T06:44:36.227Z,98919.41
2022-11-20T06:47:24.312Z,98914.22
2022-11-20T06:50:12.464Z,98922.81
2022-11-20T06:53:04.738Z,98928.22
2022-11-20T06:55:54.603Z,98927.41
2022-11-20T06:58:42.623Z,98929.78
2022-11-20T07:01:30.093Z,98926.97
2022-11-20T07:03:59.380Z,98929.34
2022-11-20T07:06:28.749Z,98936.66
2022-11-20T07:08:58.289Z,98944.75
2022-11-20T07:11:29.146Z,98942.97
2022-11-20T07:13:59.781Z,98942.97
2022-11-20T07:16:29.117Z,98947.34
2022-11-20T07:18:58.616Z,98937.91
2022-11-20T07:21:27.992Z,98934.28
2022-11-20T07:23:57.389Z,98943.63
2022-11-20T07:26:28.050Z,98938.44
2022-11-20T07:28:57.455Z,98939.78
2022-11-20T07:31:26.771Z,98934.63
2022-11-20T07:33:56.216Z,98944.00
2022-11-20T07:36:25.588Z,98935.41
2022-11-20T07:38:55.463Z,98944.53
2022-11-20T07:41:24.834Z,98938.91
2022-11-20T07:43:55.691Z,98939.94
2022-11-20T07:46:25.026Z,98944.09
2022-11-20T07:48:54.418Z,98941.50
2022-11-20T07:51:24.044Z,98935.88
2022-11-20T07:53:53.857Z,98934.16
2022-11-20T07:56:23.228Z,98932.69
2022-11-20T07:58:54.255Z,98933.84
2022-11-20T08:01:23.699Z,98944.53
2022-11-20T08:03:53.139Z,98939.94
2022-11-20T08:06:22.582Z,98938.44
2022-11-20T08:08:52.012Z,98941.03
2022-11-20T08:11:38.886Z,98947.78
2022-11-20T08:14:16.444Z,98943.63
2022-11-20T08:16:49.353Z,98947.78
2022-11-20T08:19:20.912Z,98950.38
2022-11-20T08:21:50.637Z,98953.44
2022-11-20T08:24:20.072Z,98952.00
2022-11-20T08:26:49.478Z,98966.50
2022-11-20T08:29:20.627Z,98959.63
2022-11-20T08:31:50.397Z,98968.19
2022-11-20T08:34:19.848Z,98972.03
2022-11-20T08:36:49.227Z,98966.28
2022-11-20T08:39:18.834Z,98983.84
2022-11-20T08:41:48.407Z,98984.31
2022-11-20T08:44:19.170Z,98984.97
2022-11-20T08:46:48.667Z,99003.84
2022-11-20T08:49:19.010Z,98998.13
2022-11-20T08:51:52.752Z,99000.06
2022-11-20T08:54:23.056Z,99014.00
2022-11-20T08:56:52.537Z,99012.56
2022-11-20T08:59:43.760Z,99002.31
2022-11-20T09:02:13.143Z,99008.63
2022-11-20T09:04:42.518Z,99008.19
2022-11-20T09:07:12.020Z,99004.69
2022-11-20T09:09:41.475Z,99007.63
2022-11-20T09:12:10.956Z,99015.75
2022-11-20T09:14:41.725Z,98995.59
2022-11-20T09:17:14.543Z,98997.72
2022-11-20T09:19:44.602Z,98996.72
2022-11-20T09:22:14.042Z,98989.94
2022-11-20T09:24:43.857Z,99002.88
2022-11-20T09:27:13.221Z,99019.47
2022-11-20T09:29:43.989Z,99002.13
2022-11-20T09:32:13.444Z,99009.53
2022-11-20T09:34:42.859Z,99009.44
2022-11-20T09:37:12.287Z,99014.03
2022-11-20T09:39:41.863Z,99014.38
2022-11-20T09:42:35.424Z,99014.34
2022-11-20T09:45:22.740Z,99012.22
2022-11-20T09:48:21.042Z,99020.78
2022-11-20T09:51:06.965Z,99032.25
2022-11-20T09:53:48.126Z,99007.59
2022-11-20T09:56:22.515Z,99017.16
2022-11-20T09:58:55.093Z,99018.06
2022-11-20T10:01:34.308Z,99016.28
2022-11-20T10:04:08.706Z,99012.44
2022-11-20T10:06:49.311Z,99003.56
2022-11-20T10:09:32.029Z,99017.97
2022-11-20T10:12:19.480Z,99017.03
2022-11-20T10:15:05.528Z,99018.19
2022-11-20T10:18:15.809Z,99028.22
2022-11-20T10:20:55.572Z,99032.63
2022-11-20T10:24:06.738Z,99013.16
2022-11-20T10:26:45.662Z,98994.66
2022-11-20T10:29:18.223Z,99008.75
2022-11-20T10:31:53.683Z,99009.00
2022-11-20T10:34:28.849Z,99000.44
2022-11-20T10:37:04.816Z,98983.75
2022-11-20T10:39:43.029Z,98994.44
2022-11-20T10:42:19.938Z,98990.38
2022-11-20T10:45:07.787Z,98986.00
2022-11-20T10:47:37.844Z,98988.03
2022-11-20T10:50:21.904Z,98989.16
2022-11-20T10:53:05.252Z,98986.13
2022-11-20T10:55:46.626Z,98979.69
2022-11-20T10:58:24.739Z,98980.47
2022-11-20T11:00:54.405Z,98982.06
2022-11-20T11:03:29.824Z,98982.06
2022-11-20T11:06:11.537Z,98983.84
2022-11-20T11:08:42.164Z,98979.47
2022-11-20T11:11:24.263Z,98982.38
2022-11-20T11:13:54.054Z,98973.38
2022-11-20T11:16:26.179Z,98976.69
2022-11-20T11:19:07.107Z,98977.00
2022-11-20T11:21:42.332Z,98968.78
2022-11-20T11:24:41.076Z,98973.28
2022-11-20T11:27:18.957Z,98972.03
2022-11-20T11:29:49.073Z,98962.00
2022-11-20T11:32:22.880Z,98954.09
2022-11-20T11:35:03.014Z,98953.94
2022-11-20T11:37:37.468Z,98950.13
2022-11-20T11:40:26.760Z,98955.41
2022-11-20T11:43:01.263Z,98948.66
2022-11-20T11:45:30.475Z,98949.41
2022-11-20T11:48:03.220Z,98953.59
2022-11-20T11:50:32.764Z,98950.00
2022-11-20T11:53:15.253Z,98948.50
2022-11-20T11:55:48.635Z,98940.50
2022-11-20T11:58:41.032Z,98948.50
2022-11-20T12:01:25.377Z,98938.94
2022-11-20T12:04:04.859Z,98936.34
2022-11-20T12:06:37.106Z,98936.34
2022-11-20T12:09:11.756Z,98932.41
2022-11-20T12:11:50.329Z,98926.56
2022-11-20T12:14:26.058Z,98927.94
2022-11-20T12:16:57.882Z,98936.06
2022-11-20T12:19:34.353Z,98931.34
2022-11-20T12:22:19.455Z,98926.69
2022-11-20T12:24:57.931Z,98930.31
2022-11-20T12:27:49.515Z,98930.78
2022-11-20T12:30:21.250Z,98931.13
2022-11-20T12:33:50.775Z,98929.28
2022-11-20T12:36:34.414Z,98929.28
2022-11-20T12:39:36.738Z,98936.06
2022-11-20T12:42:58.721Z,98927.34
2022-11-20T12:45:56.825Z,98930.59
2022-11-20T12:49:05.114Z,98932.50
2022-11-20T12:52:12.000Z,98931.75
2022-11-20T12:55:12.300Z,98924.72
2022-11-20T12:57:54.602Z,98916.59
2022-11-20T13:00:25.874Z,98920.63
2022-11-20T13:03:41.568Z,98910.22
2022-11-20T13:06:19.058Z,98909.31
2022-11-20T13:08:54.740Z,98908.53
2022-11-20T13:11:32.812Z,98900.50
2022-11-20T13:14:26.696Z,98894.09
2022-11-20T13:17:06.034Z,98893.59
2022-11-20T13:19:36.387Z,98894.16
2022-11-20T13:22:05.844Z,98876.34
2022-11-20T13:24:35.664Z,98885.22
2022-11-20T13:27:22.421Z,98882.69
2022-11-20T13:30:19.228Z,98883.25
2022-11-20T13:32:55.638Z,98880.75
2022-11-20T13:35:32.926Z,98877.22
2022-11-20T13:38:08.665Z,98868.50
2022-11-20T13:40:41.056Z,98855.56
2022-11-20T13:43:22.291Z,98857.00
2022-11-20T13:46:02.234Z,98858.34
2022-11-20T13:48:36.331Z,98857.34
2022-11-20T13:51:17.530Z,98860.94
2022-11-20T13:54:16.205Z,98851.56
2022-11-20T13:57:01.302Z,98848.97
2022-11-20T13:59:52.036Z,98852.59
2022-11-20T14:02:25.519Z,98849.53
2022-11-20T14:04:59.647Z,98836.84
2022-11-20T14:07:38.360Z,98840.34
2022-11-20T14:10:28.474Z,98837.28
2022-11-20T14:13:01.069Z,98840.19
2022-11-20T14:15:34.080Z,98844.13
2022-11-20T14:18:16.121Z,98832.47
2022-11-20T14:20:46.319Z,98831.19
2022-11-20T14:23:30.061Z,98822.69
2022-11-20T14:26:00.476Z,98821.41
2022-11-20T14:28:32.362Z,98821.97
2022-11-20T14:31:01.956Z,98825.13
2022-11-20T14:33:41.058Z,98817.34
2022-11-20T14:36:21.595Z,98809.53
2022-11-20T14:38:51.569Z,98812.13
2022-11-20T14:55:31.309Z,98792.97
2022-11-20T14:58:02.598Z,98791.44
2022-11-20T15:00:33.134Z,98789.63
2022-11-20T15:21:28.605Z,98791.28
2022-11-20T15:24:59.274Z,98791.47
2022-11-20T15:27:49.088Z,98791.13
2022-11-20T15:34:24.219Z,98782.94
2022-11-20T15:54:34.405Z,98770.91
2022-11-20T15:57:03.961Z,98776.75
2022-11-20T16:00:28.255Z,98772.69
2022-11-20T16:17:50.649Z,98744.59
2022-11-20T16:20:32.795Z,98761.78
2022-11-20T16:23:04.005Z,98756.38
2022-11-20T16:25:33.640Z,98749.38
2022-11-20T16:28:03.140Z,98749.94
2022-11-20T16:30:34.458Z,98748.44
2022-11-20T16:33:05.800Z,98739.13
2022-11-20T16:35:35.276Z,98737.41
2022-11-20T16:38:06.480Z,98737.97
2022-11-20T16:40:37.946Z,98734.56
2022-11-20T16:43:14.611Z,98733.78
2022-11-20T16:45:45.878Z,98725.22
2022-11-20T16:48:18.752Z,98727.81
2022-11-20T16:50:51.277Z,98717.66
2022-11-20T16:53:23.745Z,98731.41
2022-11-20T16:55:53.191Z,98721.53
2022-11-20T16:58:22.673Z,98721.19
2022-11-20T17:00:52.227Z,98716.72
2022-11-20T17:03:21.686Z,98719.78
2022-11-20T17:05:51.475Z,98716.94
2022-11-20T17:08:22.503Z,98716.44
2022-11-20T17:10:51.939Z,98714.31
2022-11-20T17:13:21.572Z,98712.41
2022-11-20T17:15:53.039Z,98714.69
2022-11-20T17:18:22.581Z,98704.97
2022-11-20T17:20:54.136Z,98698.72
2022-11-20T17:23:25.257Z,98712.41
2022-11-20T17:25:54.709Z,98699.84
2022-11-20T17:28:24.305Z,98709.09
2022-11-20T17:30:53.822Z,98703.84
2022-11-20T17:33:23.359Z,98701.97
2022-11-20T17:35:52.791Z,98697.94
2022-11-20T17:38:22.347Z,98693.72
2022-11-20T17:40:53.450Z,98689.25
2022-11-20T17:43:23.004Z,98687.13
2022-11-20T17:45:52.538Z,98678.78
2022-11-20T17:48:22.232Z,98676.97
2022-11-20T17:50:51.801Z,98676.28
2022-11-20T17:53:21.424Z,98674.44
2022-11-20T17:56:18.565Z,98685.63
2022-11-20T17:58:48.149Z,98674.72
2022-11-20T18:01:18.787Z,98666.03
2022-11-20T18:03:49.083Z,98660.69
2022-11-20T18:06:21.976Z,98666.03
2022-11-20T18:08:52.304Z,98658.44
2022-11-20T18:11:27.026Z,98656.31
2022-11-20T18:14:19.490Z,98655.50
2022-11-20T18:16:51.384Z,98651.88
2022-11-20T18:19:23.319Z,98655.84
2022-11-20T18:21:53.406Z,98650.66
2022-11-20T18:24:23.448Z,98644.97
2022-11-20T18:26:54.766Z,98641.38
2022-11-20T18:29:24.381Z,98640.34
2022-11-20T18:31:54.018Z,98635.16
2022-11-20T18:34:23.925Z,98632.81
2022-11-20T18:36:53.852Z,98625.81
2022-11-20T18:39:24.220Z,98618.56
2022-11-20T18:42:12.396Z,98607.66
2022-11-20T18:44:54.694Z,98612.28
2022-11-20T18:47:26.218Z,98604.75
2022-11-20T18:49:58.232Z,98596.22
2022-11-20T18:52:29.558Z,98597.22
2022-11-20T18:54:59.141Z,98585.75
2022-11-20T18:57:31.417Z,98587.13
2022-11-20T19:00:07.895Z,98607.22
2022-11-20T19:02:42.510Z,98591.03
2022-11-20T19:05:14.350Z,98580.84
2022-11-20T19:07:44.414Z,98595.19
2022-11-20T19:10:13.780Z,98584.19
2022-11-20T19:12:44.832Z,98595.25
2022-11-20T19:15:14.324Z,98588.50
2022-11-20T19:17:43.753Z,98602.94
2022-11-20T19:20:13.584Z,98581.34
2022-11-20T19:22:43.148Z,98586.19
2022-11-20T19:25:12.495Z,98575.53
2022-11-20T19:27:43.472Z,98579.91
2022-11-20T19:30:14.331Z,98570.59
2022-11-20T19:32:43.738Z,98573.63
2022-11-20T19:35:13.403Z,98582.66
2022-11-20T19:37:42.837Z,98584.69
2022-11-20T19:40:12.966Z,98582.31
2022-11-20T19:42:43.820Z,98579.19
2022-11-20T19:45:13.359Z,98579.44
2022-11-20T19:50:33.690Z,98579.31
2022-11-20T19:53:03.301Z,98574.38
2022-11-20T19:55:32.809Z,98561.44
2022-11-20T19:58:04.390Z,98569.44
2022-11-20T20:00:34.003Z,98569.75
2022-11-20T20:03:06.524Z,98574.94
2022-11-20T20:05:38.253Z,98576.19
2022-11-20T20:08:07.897Z,98570.69
2022-11-20T20:10:37.749Z,98568.31
2022-11-20T20:13:10.493Z,98584.06
2022-11-20T20:15:42.151Z,98573.50
2022-11-20T20:18:11.667Z,98575.84
2022-11-20T20:20:41.230Z,98577.41
2022-11-20T20:23:11.084Z,98578.22
2022-11-20T20:25:40.687Z,98569.44
2022-11-20T20:28:11.576Z,98576.19
2022-11-20T20:30:40.993Z,98569.13
2022-11-20T20:33:10.466Z,98568.31
2022-11-20T20:35:42.479Z,98570.69
2022-11-20T20:38:12.071Z,98573.28
2022-11-20T20:40:48.185Z,98576.66
2022-11-20T20:43:19.130Z,98591.06
2022-11-20T20:45:49.673Z,98585.66
2022-11-20T20:48:21.518Z,98572.47
2022-11-20T20:50:58.243Z,98570.69
2022-11-20T20:53:28.678Z,98567.88
2022-11-20T20:56:00.592Z,98561.44
2022-11-20T20:58:32.432Z,98559.94
2022-11-20T21:01:03.923Z,98567.72
2022-11-20T21:03:51.602Z,98556.25
2022-11-20T21:06:39.694Z,98560.88
2022-11-20T21:09:27.317Z,98580.00
2022-11-20T21:12:15.097Z,98574.28
2022-11-20T21:15:05.088Z,98571.25
2022-11-20T21:17:52.929Z,98565.34
2022-11-20T21:20:58.795Z,98557.69
2022-11-20T21:23:48.135Z,98566.56
2022-11-20T21:26:36.092Z,98572.31
2022-11-20T21:29:25.489Z,98578.25
2022-11-20T21:32:14.571Z,98576.69
2022-11-20T21:35:02.514Z,98573.31
2022-11-20T21:37:50.391Z,98579.28
2022-11-20T21:40:37.981Z,98582.31
2022-11-20T21:43:25.932Z,98579.97
2022-11-20T21:46:15.994Z,98570.94
2022-11-20T21:49:05.744Z,98566.91
2022-11-20T21:51:53.808Z,98558.19
2022-11-20T21:54:41.304Z,98552.00
2022-11-20T21:57:29.390Z,98559.75
2022-11-20T22:00:17.993Z,98569.00
2022-11-20T22:03:06.313Z,98567.75
2022-11-20T22:05:59.861Z,98569.31
2022-11-20T22:08:48.815Z,98562.88
2022-11-20T22:11:36.438Z,98561.91
2022-11-20T22:14:24.920Z,98567.06
2022-11-20T22:17:15.708Z,98557.72
2022-11-20T22:20:03.616Z,98559.31
2022-11-20T22:22:52.613Z,98556.94
2022-11-20T22:25:40.158Z,98553.00
2022-11-20T22:28:28.002Z,98560.75
2022-11-20T22:31:15.820Z,98558.63
2022-11-20T22:34:04.140Z,98561.16
2022-11-20T22:36:51.825Z,98562.88
2022-11-20T22:39:41.334Z,98555.56
2022-11-20T22:42:29.358Z,98560.97
2022-11-20T22:45:18.089Z,98559.19
2022-11-20T22:48:07.046Z,98555.78
2022-11-20T22:50:54.916Z,98558.50
2022-11-20T22:53:43.677Z,98561.16
2022-11-20T22:56:33.830Z,98561.84
2022-11-20T22:59:21.822Z,98565.75
2022-11-20T23:02:09.310Z,98566.56
2022-11-20T23:04:57.107Z,98559.66
2022-11-20T23:07:45.223Z,98564.16
2022-11-20T23:10:33.236Z,98559.31
2022-11-20T23:13:22.321Z,98557.81
2022-11-20T23:16:13.184Z,98552.69
2022-11-20T23:19:03.160Z,98556.63
2022-11-20T23:21:50.830Z,98558.13
2022-11-20T23:24:38.503Z,98559.59
2022-11-20T23:27:28.401Z,98553.63
2022-11-20T23:30:18.317Z,98564.56
2022-11-20T23:33:06.483Z,98566.69
2022-11-20T23:35:54.681Z,98563.53
2022-11-20T23:38:42.905Z,98559.94
2022-11-20T23:41:30.701Z,98554.19
2022-11-20T23:44:18.312Z,98554.75
2022-11-20T23:47:07.689Z,98546.44
2022-11-20T23:49:55.709Z,98544.41
2022-11-20T23:52:43.287Z,98554.75
2022-11-20T23:55:31.097Z,98542.28
2022-11-20T23:58:20.068Z,98540.22
